Time;durP1;ratioP1;P1;durP2;ratioP2;P2;SDS_P1;SDS_P2;PMS_P1;PMS_P2;Temp;Humidity;BMP_temperature;BMP_pressure;BME280_temperature;BME280_humidity;BME280_pressure;Samples;Min_cycle;Max_cycle;Signal;HPM_P1;HPM_P2
2021/10/28 00:14:46;;;;;;;5.85;4.78;;;11.70;85.20;;;;;;5085226;28;20032;-75
2021/10/28 00:17:15;;;;;;;6.65;5.03;;;11.70;85.00;;;;;;5059617;28;20030;-76
2021/10/28 00:19:42;;;;;;;5.32;4.10;;;11.70;85.20;;;;;;5073978;28;20098;-77
2021/10/28 00:22:10;;;;;;;8.45;4.78;;;11.60;84.60;;;;;;5077012;28;20032;-75
2021/10/28 00:24:36;;;;;;;5.03;4.05;;;11.50;84.80;;;;;;5084587;28;20030;-76
2021/10/28 00:27:02;;;;;;;6.40;4.50;;;11.50;84.90;;;;;;5054928;28;20404;-76
2021/10/28 00:29:28;;;;;;;6.07;4.57;;;11.50;85.30;;;;;;5088251;28;20024;-76
2021/10/28 00:31:57;;;;;;;6.93;4.38;;;11.50;85.20;;;;;;5075085;28;20035;-76
2021/10/28 00:34:24;;;;;;;7.65;4.57;;;11.50;85.30;;;;;;5075486;28;20367;-76
2021/10/28 00:36:50;;;;;;;6.13;4.82;;;11.50;85.80;;;;;;5077287;28;20031;-76
2021/10/28 00:39:16;;;;;;;7.88;5.00;;;11.50;85.70;;;;;;5059930;28;20021;-76
2021/10/28 00:41:42;;;;;;;7.28;4.63;;;11.50;85.80;;;;;;5077819;28;20040;-75
2021/10/28 00:44:10;;;;;;;6.20;4.20;;;11.50;85.80;;;;;;5058887;28;20056;-76
2021/10/28 00:46:39;;;;;;;5.63;4.55;;;11.50;85.50;;;;;;5073839;28;20078;-75
2021/10/28 00:49:10;;;;;;;8.88;4.82;;;11.50;85.50;;;;;;5088280;28;20055;-76
2021/10/28 00:51:37;;;;;;;5.55;4.43;;;11.50;85.40;;;;;;5067753;28;20110;-76
2021/10/28 00:54:05;;;;;;;6.30;4.32;;;11.50;85.60;;;;;;5082367;28;20024;-76
2021/10/28 00:56:32;;;;;;;7.55;4.63;;;11.40;85.30;;;;;;5077590;28;20020;-76
2021/10/28 00:59:00;;;;;;;6.70;4.55;;;11.40;85.60;;;;;;5057209;28;20025;-76
2021/10/28 01:01:26;;;;;;;6.97;4.47;;;11.40;85.50;;;;;;5074823;28;20028;-77
2021/10/28 01:03:52;;;;;;;7.45;4.30;;;11.40;85.70;;;;;;5076713;28;20031;-76
2021/10/28 01:06:19;;;;;;;8.20;4.72;;;11.40;85.80;;;;;;5076360;28;20035;-75
2021/10/28 01:08:46;;;;;;;5.78;4.30;;;11.40;85.50;;;;;;5077287;28;20024;-76
2021/10/28 01:11:13;;;;;;;5.93;4.10;;;11.40;85.10;;;;;;5076907;28;20044;-76
2021/10/28 01:13:39;;;;;;;5.75;3.88;;;11.30;84.90;;;;;;5073057;28;20020;-76
2021/10/28 01:16:06;;;;;;;5.68;4.25;;;11.30;84.70;;;;;;5076720;28;20508;-76
2021/10/28 01:18:35;;;;;;;6.38;3.92;;;11.20;84.80;;;;;;5077338;28;20029;-76
2021/10/28 01:21:03;;;;;;;7.85;4.22;;;11.20;84.80;;;;;;5076800;28;20028;-76
2021/10/28 01:23:28;;;;;;;7.25;4.97;;;11.20;85.10;;;;;;5077004;28;20105;-76
2021/10/28 01:26:05;;;;;;;6.78;4.50;;;11.20;85.50;;;;;;5086696;28;20162;-75
2021/10/28 01:28:33;;;;;;;6.75;4.10;;;11.20;85.30;;;;;;5073641;28;20520;-76
2021/10/28 01:31:08;;;;;;;6.95;4.47;;;11.20;86.60;;;;;;5076661;28;20036;-76
2021/10/28 01:33:35;;;;;;;7.97;4.47;;;11.20;85.60;;;;;;5076924;28;20389;-76
2021/10/28 01:36:01;;;;;;;7.20;4.45;;;11.10;85.70;;;;;;5060467;28;20123;-76
2021/10/28 01:38:27;;;;;;;7.15;4.43;;;11.20;86.00;;;;;;5086668;28;20157;-76
2021/10/28 01:40:54;;;;;;;7.65;4.57;;;11.20;86.10;;;;;;5073755;28;20052;-76
2021/10/28 01:43:20;;;;;;;6.40;4.15;;;11.10;86.00;;;;;;5056436;28;20040;-76
2021/10/28 01:45:46;;;;;;;6.72;3.95;;;11.10;85.80;;;;;;5077168;28;20028;-76
2021/10/28 01:48:13;;;;;;;7.38;4.00;;;11.10;85.10;;;;;;5082395;28;20032;-76
2021/10/28 01:50:40;;;;;;;6.53;4.22;;;11.00;84.70;;;;;;5084806;28;20032;-76
2021/10/28 01:53:06;;;;;;;6.50;3.85;;;10.90;85.00;;;;;;5073402;28;20028;-76
2021/10/28 01:55:32;;;;;;;8.55;4.40;;;10.90;85.10;;;;;;5088635;28;20047;-75
2021/10/28 01:57:58;;;;;;;4.68;3.80;;;11.00;85.50;;;;;;5076558;28;20032;-75
2021/10/28 02:00:24;;;;;;;7.28;4.40;;;10.90;85.00;;;;;;5076756;28;20024;-76
2021/10/28 02:02:50;;;;;;;6.65;4.00;;;10.90;85.20;;;;;;5076728;28;20036;-76
2021/10/28 02:05:18;;;;;;;6.88;4.18;;;10.90;85.20;;;;;;5076456;28;20024;-76
2021/10/28 02:07:44;;;;;;;6.03;3.90;;;10.80;85.00;;;;;;5056144;28;20111;-76
2021/10/28 02:10:11;;;;;;;6.35;4.18;;;10.80;85.20;;;;;;5087894;28;20564;-76
2021/10/28 02:12:38;;;;;;;6.00;4.07;;;10.80;85.40;;;;;;5076664;28;20043;-75
2021/10/28 02:15:04;;;;;;;6.80;3.90;;;10.80;84.80;;;;;;5060940;28;20032;-75
2021/10/28 02:17:30;;;;;;;7.07;3.92;;;10.70;85.00;;;;;;5086184;28;20016;-76
2021/10/28 02:19:55;;;;;;;5.60;3.95;;;10.70;84.90;;;;;;5073767;28;20366;-76
2021/10/28 02:22:21;;;;;;;5.85;4.00;;;10.70;84.80;;;;;;5074320;28;20101;-76
2021/10/28 02:24:46;;;;;;;5.95;3.88;;;10.70;84.80;;;;;;5086532;28;20016;-76
2021/10/28 02:27:13;;;;;;;6.53;3.80;;;10.60;84.80;;;;;;5080165;28;20107;-76
2021/10/28 02:29:39;;;;;;;5.60;4.28;;;10.60;85.10;;;;;;5059222;28;20028;-76
2021/10/28 02:32:05;;;;;;;4.88;3.67;;;10.60;85.30;;;;;;5088306;28;20507;-76
2021/10/28 02:34:31;;;;;;;5.50;4.05;;;10.60;85.40;;;;;;5072783;28;20020;-76
2021/10/28 02:36:57;;;;;;;5.30;3.78;;;10.60;85.00;;;;;;5076313;28;20031;-76
2021/10/28 02:39:22;;;;;;;6.03;4.22;;;10.50;85.20;;;;;;5082872;28;20491;-76
2021/10/28 02:41:48;;;;;;;5.40;3.83;;;10.50;85.40;;;;;;5088115;28;20119;-75
2021/10/28 02:44:14;;;;;;;6.28;3.75;;;10.50;84.90;;;;;;5088470;28;20035;-75
2021/10/28 02:46:40;;;;;;;5.57;4.00;;;10.40;84.70;;;;;;5076672;28;20024;-76
2021/10/28 02:49:11;;;;;;;5.30;3.67;;;10.40;84.70;;;;;;5090498;28;20020;-76
2021/10/28 02:51:38;;;;;;;4.90;3.67;;;10.30;85.00;;;;;;5089035;28;20035;-76
2021/10/28 02:54:04;;;;;;;5.43;3.80;;;10.30;84.80;;;;;;5088191;28;20025;-76
2021/10/28 02:56:30;;;;;;;5.72;3.97;;;10.30;84.80;;;;;;5088172;28;20024;-76
2021/10/28 02:58:56;;;;;;;5.20;3.88;;;10.30;84.80;;;;;;5090842;28;20050;-76
2021/10/28 03:01:21;;;;;;;5.43;4.18;;;10.30;85.00;;;;;;5090830;28;20026;-75
2021/10/28 03:03:47;;;;;;;6.22;3.58;;;10.20;84.90;;;;;;5089360;28;20096;-75
2021/10/28 03:06:13;;;;;;;5.85;4.00;;;10.20;84.80;;;;;;5062928;28;20036;-75
2021/10/28 03:08:39;;;;;;;4.57;3.60;;;10.20;84.70;;;;;;5080118;28;20081;-76
2021/10/28 03:11:07;;;;;;;5.95;4.13;;;10.20;85.10;;;;;;5091230;28;20016;-75
2021/10/28 03:13:33;;;;;;;7.32;4.18;;;10.20;85.00;;;;;;5076175;28;20029;-76
2021/10/28 03:16:09;;;;;;;7.28;4.53;;;10.10;85.50;;;;;;5079106;28;20416;-76
2021/10/28 03:26:48;;;;;;;5.93;3.50;;;10.10;85.30;;;;;;5086022;28;20077;-76
2021/10/28 03:29:14;;;;;;;4.88;4.05;;;10.10;85.30;;;;;;5076140;28;20029;-75
2021/10/28 03:31:40;;;;;;;5.20;3.60;;;10.00;85.00;;;;;;5057984;28;20032;-75
2021/10/28 03:34:05;;;;;;;6.38;4.13;;;10.00;84.90;;;;;;5089963;28;20031;-75
2021/10/28 03:37:21;;;;;;;6.15;3.60;;;10.00;85.40;;;;;;5087314;28;20062;-75
2021/10/28 03:40:06;;;;;;;6.53;3.80;;;10.00;84.80;;;;;;5071388;28;20093;-75
2021/10/28 04:29:52;;;;;;;6.78;3.70;;;9.80;87.00;;;;;;5084098;28;20044;-75
2021/10/28 04:32:17;;;;;;;6.20;3.83;;;9.90;87.10;;;;;;5060340;28;20416;-76
2021/10/28 04:34:44;;;;;;;4.90;3.95;;;9.80;86.70;;;;;;5073724;28;20370;-75
2021/10/28 04:37:10;;;;;;;5.25;3.90;;;9.80;87.00;;;;;;5077088;28;20035;-75
2021/10/28 04:39:37;;;;;;;7.18;4.38;;;9.80;86.80;;;;;;5077829;28;20023;-76
2021/10/28 04:42:03;;;;;;;7.28;4.55;;;9.80;87.00;;;;;;5077767;28;20501;-75
2021/10/28 04:44:28;;;;;;;5.53;4.13;;;9.80;87.00;;;;;;5076329;28;20033;-75
2021/10/28 04:46:54;;;;;;;6.75;4.13;;;9.80;87.40;;;;;;5089219;28;20079;-75
2021/10/28 04:49:20;;;;;;;6.07;4.25;;;9.80;87.30;;;;;;5075273;28;20082;-75
2021/10/28 04:51:46;;;;;;;7.05;4.40;;;9.80;87.00;;;;;;5077974;28;20090;-76
2021/10/28 04:54:11;;;;;;;4.95;3.92;;;9.80;87.30;;;;;;5077638;28;20436;-76
2021/10/28 04:56:37;;;;;;;4.70;4.05;;;9.80;87.40;;;;;;5059764;28;20060;-75
2021/10/28 04:59:02;;;;;;;8.38;4.10;;;9.80;88.30;;;;;;5075621;28;20040;-76
2021/10/28 05:01:29;;;;;;;6.55;4.40;;;9.80;87.30;;;;;;5074655;28;20020;-76
2021/10/28 05:03:54;;;;;;;6.03;3.83;;;9.80;87.30;;;;;;5075955;28;20034;-75
2021/10/28 05:06:20;;;;;;;5.75;4.03;;;9.80;87.30;;;;;;5059006;28;20025;-75
2021/10/28 05:08:45;;;;;;;6.13;4.13;;;9.80;87.50;;;;;;5077508;28;20089;-75
2021/10/28 05:11:15;;;;;;;5.80;4.18;;;9.80;87.50;;;;;;5077009;28;20100;-75
2021/10/28 05:13:41;;;;;;;6.55;4.25;;;9.80;87.40;;;;;;5072629;28;20024;-75
2021/10/28 05:16:06;;;;;;;5.65;3.70;;;9.80;87.50;;;;;;5076798;28;20542;-76
2021/10/28 05:18:39;;;;;;;6.63;4.32;;;9.90;87.10;;;;;;5077150;28;20144;-75
2021/10/28 05:21:05;;;;;;;6.30;3.80;;;9.80;87.50;;;;;;5077333;28;20111;-75
2021/10/28 05:23:31;;;;;;;5.43;4.05;;;9.90;87.10;;;;;;5076627;28;20845;-75
2021/10/28 05:25:57;;;;;;;6.20;4.03;;;9.90;87.70;;;;;;5087027;28;20091;-75
2021/10/28 05:28:23;;;;;;;5.85;4.40;;;9.90;87.40;;;;;;5073772;28;20504;-75
2021/10/28 05:30:48;;;;;;;5.60;4.03;;;9.90;87.10;;;;;;5077013;28;20020;-76
2021/10/28 05:33:14;;;;;;;7.05;3.90;;;9.90;87.40;;;;;;5077130;28;20024;-75
2021/10/28 05:35:40;;;;;;;6.28;4.38;;;9.80;87.40;;;;;;5058102;28;20502;-76
2021/10/28 05:38:05;;;;;;;5.85;4.47;;;9.80;87.70;;;;;;5088877;28;20450;-74
2021/10/28 05:40:31;;;;;;;6.53;4.43;;;9.80;87.70;;;;;;5072885;28;25283;-75
2021/10/28 05:42:57;;;;;;;5.55;4.05;;;9.80;87.70;;;;;;5076943;28;20064;-75
2021/10/28 05:45:23;;;;;;;6.55;4.53;;;9.80;87.70;;;;;;5083146;28;20095;-74
2021/10/28 05:47:49;;;;;;;6.57;4.82;;;9.80;87.90;;;;;;5084296;28;20027;-75
2021/10/28 05:50:17;;;;;;;7.50;4.30;;;9.80;87.80;;;;;;5075115;28;20383;-76
2021/10/28 05:52:45;;;;;;;5.85;3.92;;;9.80;88.00;;;;;;5081286;28;20020;-77
2021/10/28 05:55:11;;;;;;;6.13;4.10;;;9.80;87.80;;;;;;5064686;28;20027;-76
2021/10/28 05:57:37;;;;;;;6.18;4.57;;;9.80;87.80;;;;;;5089820;28;20020;-77
2021/10/28 06:00:08;;;;;;;5.30;4.10;;;9.80;87.60;;;;;;5088648;28;20032;-76
2021/10/28 06:02:34;;;;;;;6.45;4.05;;;9.80;87.70;;;;;;5085104;28;20059;-76
2021/10/28 06:05:01;;;;;;;6.72;4.28;;;9.80;87.60;;;;;;5087351;28;20024;-77
2021/10/28 06:07:27;;;;;;;6.50;4.55;;;9.80;88.00;;;;;;5089822;28;20055;-75
2021/10/28 06:09:52;;;;;;;7.72;4.90;;;9.80;87.80;;;;;;5090714;28;20456;-76
2021/10/28 06:12:18;;;;;;;6.80;4.53;;;9.80;87.90;;;;;;5070075;28;20081;-76
2021/10/28 06:14:43;;;;;;;7.75;4.50;;;9.80;87.80;;;;;;5092094;28;20400;-76
2021/10/28 06:17:13;;;;;;;8.43;4.45;;;9.90;87.70;;;;;;5092166;28;20059;-77
2021/10/28 06:19:39;;;;;;;5.78;4.03;;;9.90;87.70;;;;;;5094097;28;20032;-76
2021/10/28 06:22:05;;;;;;;7.30;4.70;;;9.90;87.60;;;;;;5093697;28;20115;-76
2021/10/28 06:24:31;;;;;;;5.90;4.15;;;9.80;87.20;;;;;;5073493;28;20031;-76
2021/10/28 06:26:57;;;;;;;6.45;4.40;;;9.80;87.90;;;;;;5091213;28;20027;-76
2021/10/28 06:29:23;;;;;;;7.63;4.30;;;9.80;87.90;;;;;;5092908;28;20099;-75
2021/10/28 06:31:49;;;;;;;7.45;4.20;;;9.90;88.00;;;;;;5073751;28;20036;-75
2021/10/28 06:34:20;;;;;;;5.50;4.07;;;9.90;87.60;;;;;;5092642;28;20009;-76
2021/10/28 06:36:48;;;;;;;7.65;4.15;;;9.90;87.40;;;;;;5073564;28;20020;-75
2021/10/28 06:39:14;;;;;;;5.63;4.40;;;9.90;87.10;;;;;;5092740;28;20028;-74
2021/10/28 06:41:40;;;;;;;5.53;4.30;;;9.90;87.10;;;;;;5090824;28;20459;-75
2021/10/28 06:44:06;;;;;;;7.03;4.85;;;9.90;87.40;;;;;;5093528;28;20081;-75
2021/10/28 06:46:33;;;;;;;7.10;5.00;;;9.90;87.30;;;;;;5092481;28;20016;-74
2021/10/28 06:48:59;;;;;;;8.18;4.90;;;9.80;87.10;;;;;;5086723;28;20496;-77
2021/10/28 06:51:25;;;;;;;6.90;4.40;;;9.80;87.80;;;;;;5091717;28;20035;-76
2021/10/28 07:04:28;;;;;;;6.35;4.35;;;10.10;87.80;;;;;;5076083;28;20032;-77
2021/10/28 07:06:54;;;;;;;6.28;3.95;;;10.20;87.80;;;;;;5079116;28;20032;-76
2021/10/28 07:12:25;;;;;;;8.23;4.53;;;10.40;87.30;;;;;;5085431;28;20029;-76
2021/10/28 07:14:44;;;;;;;5.80;4.05;;;10.50;87.40;;;;;;5078613;28;20032;-79
2021/10/28 07:22:21;;;;;;;6.45;4.78;;;11.10;87.50;;;;;;5090623;28;20036;-76
2021/10/28 07:36:11;;;;;;;7.45;4.72;;;11.90;83.00;;;;;;5079457;28;20031;-76
2021/10/28 07:38:48;;;;;;;5.88;4.13;;;12.10;83.50;;;;;;5078319;28;20032;-77
2021/10/28 08:19:34;;;;;;;6.22;4.80;;;15.60;72.60;;;;;;4855381;29;20120;-76
2021/10/28 08:22:13;;;;;;;5.10;3.65;;;15.70;71.70;;;;;;4894349;29;20170;-76
2021/10/28 08:30:09;;;;;;;6.60;4.03;;;16.70;70.20;;;;;;4914373;29;20047;-78
2021/10/28 08:32:35;;;;;;;6.13;4.18;;;16.90;71.30;;;;;;4914269;29;20028;-77
2021/10/28 08:35:02;;;;;;;5.20;3.50;;;17.20;71.80;;;;;;4914279;29;20141;-75
2021/10/28 08:40:26;;;;;;;4.75;3.55;;;18.50;71.00;;;;;;4952292;29;20035;-78
2021/10/28 08:42:53;;;;;;;4.43;3.78;;;19.40;70.00;;;;;;4952693;29;20039;-76
2021/10/28 08:45:20;;;;;;;3.95;3.42;;;20.00;65.00;;;;;;4936330;29;20405;-75
2021/10/28 08:47:57;;;;;;;6.07;3.85;;;21.10;67.60;;;;;;4983001;28;20041;-78
2021/10/28 08:50:34;;;;;;;6.40;4.15;;;21.80;60.70;;;;;;4980503;28;20039;-78
2021/10/28 08:55:48;;;;;;;6.97;5.07;;;22.80;57.50;;;;;;4990827;28;20447;-77
2021/10/28 09:24:21;;;;;;;5.30;3.40;;;27.40;45.30;;;;;;5009850;28;20088;-77
2021/10/28 09:27:27;;;;;;;6.47;3.42;;;27.40;43.90;;;;;;5009675;28;20457;-78
2021/10/28 09:30:08;;;;;;;6.10;3.30;;;27.50;45.00;;;;;;4991994;28;20561;-76
2021/10/28 09:32:44;;;;;;;5.68;3.90;;;28.10;45.30;;;;;;5057621;28;20040;-77
2021/10/28 09:44:12;;;;;;;4.82;3.22;;;27.70;42.50;;;;;;5072981;28;20046;-78
2021/10/28 09:47:02;;;;;;;3.88;3.33;;;27.50;39.90;;;;;;5088970;28;20457;-77
2021/10/28 09:52:27;;;;;;;3.60;3.08;;;27.00;40.40;;;;;;5088646;28;20526;-77
2021/10/28 09:57:46;;;;;;;4.68;3.33;;;27.30;39.90;;;;;;5076380;28;20048;-78
2021/10/28 09:58:04;;;;;;;3.80;2.78;;;27.40;39.90;;;;;;5076381;28;20033;-77
2021/10/28 10:00:40;;;;;;;3.58;2.92;;;27.30;40.60;;;;;;5058981;28;20103;-77
2021/10/28 10:03:26;;;;;;;5.28;2.83;;;27.80;40.80;;;;;;5076387;28;20077;-78
2021/10/28 10:06:04;;;;;;;3.25;2.70;;;28.60;38.00;;;;;;5076581;28;20020;-76
2021/10/28 10:08:30;;;;;;;3.63;3.08;;;30.20;37.30;;;;;;5076907;28;20112;-78
2021/10/28 10:10:57;;;;;;;4.40;3.63;;;30.10;35.20;;;;;;5074187;28;20473;-78
2021/10/28 10:13:24;;;;;;;6.65;4.05;;;29.40;34.10;;;;;;5074456;28;20021;-79
2021/10/28 10:15:52;;;;;;;4.45;3.67;;;29.10;34.60;;;;;;5076535;28;20035;-78
2021/10/28 10:18:20;;;;;;;7.15;5.55;;;29.10;35.00;;;;;;5062776;28;20481;-79
2021/10/28 10:20:50;;;;;;;9.07;7.05;;;29.30;36.80;;;;;;5065524;28;20016;-78
2021/10/28 10:23:26;;;;;;;10.38;8.32;;;28.50;34.50;;;;;;5088256;28;20036;-79
2021/10/28 11:22:18;;;;;;;3.45;2.78;;;31.60;30.00;;;;;;5009042;28;20073;-76
2021/10/28 12:46:01;;;;;;;3.08;1.92;;;24.00;44.70;;;;;;5087873;28;20059;-76
2021/10/28 12:54:48;;;;;;;;;;;24.30;43.60;;;;;;5085794;28;20436;-76
2021/10/28 13:03:00;;;;;;;2.25;1.90;;;23.70;44.60;;;;;;5086774;28;20040;-77
2021/10/28 13:37:44;;;;;;;2.75;2.03;;;24.40;39.70;;;;;;5019940;28;20104;-77
2021/10/28 14:14:36;;;;;;;2.05;1.55;;;21.00;50.20;;;;;;4987493;28;20061;-76
2021/10/28 14:18:40;;;;;;;5.05;1.85;;;20.80;49.50;;;;;;5033487;28;20043;-76
2021/10/28 14:29:16;;;;;;;2.08;1.63;;;20.50;49.30;;;;;;5087973;28;20085;-76
2021/10/28 15:35:46;;;;;;;4.10;2.17;;;18.90;56.20;;;;;;4942548;29;20115;-76
2021/10/28 15:59:51;;;;;;;4.68;2.40;;;18.80;57.60;;;;;;4895923;29;20032;-76
2021/10/28 16:21:51;;;;;;;4.00;2.38;;;18.30;59.40;;;;;;4954407;28;20531;-75
2021/10/28 16:24:17;;;;;;;3.35;2.65;;;18.20;59.50;;;;;;5004691;28;20069;-76
2021/10/28 16:26:43;;;;;;;5.45;2.42;;;18.20;59.80;;;;;;4991705;28;20041;-76
2021/10/28 16:29:12;;;;;;;5.63;2.78;;;18.20;59.70;;;;;;5007848;28;20153;-76
2021/10/28 16:31:40;;;;;;;4.35;2.85;;;18.10;59.60;;;;;;5073029;28;20039;-76
2021/10/28 16:34:05;;;;;;;5.93;3.03;;;18.10;59.70;;;;;;5077325;28;20090;-77
2021/10/28 16:36:31;;;;;;;4.68;2.90;;;18.10;61.40;;;;;;5060257;28;20024;-76
2021/10/28 16:39:00;;;;;;;4.78;2.85;;;18.00;60.60;;;;;;5078099;28;20025;-75
2021/10/28 16:41:25;;;;;;;5.45;2.58;;;17.90;59.90;;;;;;5077915;28;20075;-76
2021/10/28 16:43:51;;;;;;;4.00;2.22;;;17.90;61.10;;;;;;5074150;28;20468;-77
2021/10/28 16:46:17;;;;;;;4.47;2.42;;;17.80;61.20;;;;;;5076323;28;20027;-76
2021/10/28 16:48:43;;;;;;;4.47;2.30;;;17.80;61.30;;;;;;5077548;28;20074;-76
2021/10/28 16:51:09;;;;;;;4.53;2.30;;;17.70;61.90;;;;;;5077693;28;20489;-77
2021/10/28 16:53:34;;;;;;;4.30;2.25;;;17.70;61.60;;;;;;5077636;28;20493;-76
2021/10/28 16:56:01;;;;;;;3.63;2.58;;;17.60;62.20;;;;;;5057660;28;20078;-76
2021/10/28 16:58:28;;;;;;;5.38;2.03;;;17.60;61.90;;;;;;5074221;28;20029;-76
2021/10/28 17:00:56;;;;;;;3.92;2.20;;;17.50;62.20;;;;;;5058835;28;20029;-76
2021/10/28 17:03:22;;;;;;;3.83;2.08;;;17.40;62.90;;;;;;5077187;28;20033;-77
2021/10/28 17:05:48;;;;;;;3.30;2.28;;;17.50;63.20;;;;;;5059391;28;20020;-76
2021/10/28 17:08:15;;;;;;;4.57;2.53;;;17.40;62.60;;;;;;5077170;28;20070;-77
2021/10/28 17:10:41;;;;;;;5.65;2.80;;;17.30;63.30;;;;;;5073212;28;20074;-76
2021/10/28 17:13:06;;;;;;;5.28;2.60;;;17.30;63.80;;;;;;5076904;28;20029;-75
2021/10/28 17:15:32;;;;;;;4.22;2.70;;;17.20;64.70;;;;;;5077313;28;20028;-76
2021/10/28 17:17:58;;;;;;;4.55;2.55;;;17.10;64.60;;;;;;5077197;28;20060;-74
2021/10/28 17:20:26;;;;;;;5.38;3.17;;;17.10;63.60;;;;;;5058858;28;20013;-77
2021/10/28 17:22:54;;;;;;;4.32;2.50;;;17.10;64.20;;;;;;5072927;28;20390;-76
2021/10/28 17:25:21;;;;;;;4.60;2.67;;;17.10;63.80;;;;;;5087753;28;20040;-76
2021/10/28 17:27:48;;;;;;;3.35;2.45;;;17.10;63.90;;;;;;5087006;28;20062;-76
2021/10/28 17:30:16;;;;;;;5.30;2.55;;;17.10;64.30;;;;;;5080739;28;20024;-76
2021/10/28 17:32:44;;;;;;;4.85;2.45;;;17.10;64.00;;;;;;5076887;28;20029;-75
2021/10/28 17:35:11;;;;;;;9.90;3.35;;;17.10;64.20;;;;;;5075509;28;20008;-75
2021/10/28 17:37:37;;;;;;;5.80;3.10;;;17.00;64.30;;;;;;5055528;28;20485;-74
2021/10/28 17:40:04;;;;;;;4.70;3.05;;;16.90;64.40;;;;;;5076715;28;20024;-74
2021/10/28 17:42:30;;;;;;;4.15;2.65;;;17.00;65.00;;;;;;5076925;28;20052;-76
2021/10/28 17:45:00;;;;;;;4.13;2.60;;;16.80;65.10;;;;;;5059056;28;20020;-76
2021/10/28 17:47:28;;;;;;;3.78;2.50;;;16.80;65.60;;;;;;5077914;28;20094;-76
2021/10/28 17:49:56;;;;;;;6.07;2.72;;;16.70;65.30;;;;;;5085207;28;20059;-76
2021/10/28 17:52:22;;;;;;;5.80;2.60;;;16.70;66.10;;;;;;5077186;28;20119;-78
2021/10/28 17:54:47;;;;;;;5.40;2.63;;;16.60;66.10;;;;;;5066382;28;20026;-77
2021/10/28 17:57:14;;;;;;;3.60;2.60;;;16.60;66.20;;;;;;5084367;28;20103;-77
2021/10/28 17:59:42;;;;;;;2.90;2.38;;;16.60;66.00;;;;;;5066977;28;20405;-78
2021/10/28 18:02:09;;;;;;;5.95;2.83;;;16.50;66.00;;;;;;5075146;28;20082;-76
2021/10/28 18:04:35;;;;;;;4.65;2.80;;;16.50;66.50;;;;;;5073319;28;20036;-77
2021/10/28 18:07:01;;;;;;;8.80;3.78;;;16.40;66.20;;;;;;5076326;28;20115;-75
2021/10/28 18:09:27;;;;;;;5.65;3.58;;;16.40;66.40;;;;;;5063871;28;20093;-76
2021/10/28 18:11:55;;;;;;;5.60;3.03;;;16.30;66.60;;;;;;5087511;28;20036;-76
2021/10/28 18:14:23;;;;;;;6.13;3.17;;;16.30;66.90;;;;;;5079888;28;20488;-75
2021/10/28 18:16:50;;;;;;;7.13;3.38;;;16.20;67.40;;;;;;5058889;28;20032;-77
2021/10/28 18:19:16;;;;;;;5.18;2.95;;;16.10;68.40;;;;;;5084104;28;20086;-76
2021/10/28 18:21:44;;;;;;;6.25;2.92;;;16.10;68.00;;;;;;5083116;28;20024;-76
2021/10/28 18:24:11;;;;;;;5.57;3.10;;;16.20;67.60;;;;;;5087523;28;20052;-76
2021/10/28 18:26:39;;;;;;;4.22;3.10;;;16.10;68.70;;;;;;5079913;28;20496;-78
2021/10/28 18:29:05;;;;;;;4.90;2.97;;;16.00;68.70;;;;;;5086638;28;20036;-76
2021/10/28 18:31:31;;;;;;;6.10;3.38;;;16.00;68.70;;;;;;5080533;28;20028;-76
2021/10/28 18:33:59;;;;;;;5.20;2.85;;;16.00;68.10;;;;;;5089035;28;20527;-77
2021/10/28 18:36:26;;;;;;;4.95;3.10;;;16.00;69.10;;;;;;5087152;28;20032;-76
2021/10/28 18:38:52;;;;;;;5.28;3.00;;;15.90;68.10;;;;;;5083458;28;20062;-77
2021/10/28 18:41:19;;;;;;;5.00;3.33;;;16.00;68.40;;;;;;5080176;28;20068;-77
2021/10/28 18:43:46;;;;;;;5.40;3.25;;;16.00;68.10;;;;;;5066347;28;20408;-79
2021/10/28 18:46:16;;;;;;;6.97;3.53;;;16.00;69.50;;;;;;5083367;28;20024;-79
2021/10/28 18:48:42;;;;;;;10.30;6.50;;;16.00;67.90;;;;;;5075892;28;20147;-80
2021/10/28 18:51:09;;;;;;;5.88;3.42;;;15.90;69.40;;;;;;5068948;28;20547;-79
2021/10/28 18:53:38;;;;;;;6.78;3.45;;;15.90;68.80;;;;;;5083553;28;20020;-75
2021/10/28 18:56:04;;;;;;;7.72;3.90;;;15.80;68.90;;;;;;5088972;28;20021;-78
2021/10/28 18:58:30;;;;;;;7.60;4.70;;;15.80;69.50;;;;;;5082309;28;20169;-77
2021/10/28 19:00:56;;;;;;;6.25;3.50;;;15.80;69.50;;;;;;5076129;28;20028;-78
2021/10/28 19:03:22;;;;;;;6.45;3.78;;;15.90;69.40;;;;;;5083852;28;20044;-77
2021/10/28 19:05:52;;;;;;;7.07;4.32;;;15.80;69.20;;;;;;5083115;28;20020;-79
2021/10/28 19:08:18;;;;;;;6.63;4.43;;;15.80;69.90;;;;;;5079265;28;20024;-79
2021/10/28 19:10:44;;;;;;;8.23;4.28;;;15.70;70.50;;;;;;5075011;28;20066;-78
2021/10/28 19:13:10;;;;;;;5.82;3.95;;;15.70;71.40;;;;;;5081763;28;20540;-79
2021/10/28 19:15:35;;;;;;;6.22;4.18;;;15.70;70.30;;;;;;5086033;28;20113;-78
2021/10/28 19:18:01;;;;;;;7.63;3.92;;;15.70;69.70;;;;;;5084817;28;20110;-77
2021/10/28 19:20:28;;;;;;;7.40;4.18;;;15.70;70.30;;;;;;5088035;28;20111;-79
2021/10/28 19:22:55;;;;;;;8.00;4.15;;;15.60;70.80;;;;;;5086030;28;20024;-80
2021/10/28 19:25:21;;;;;;;8.48;4.45;;;15.60;71.20;;;;;;5089902;28;20032;-78
2021/10/28 19:28:07;;;;;;;7.75;3.92;;;15.50;70.40;;;;;;5087500;28;20066;-77
2021/10/28 19:30:38;;;;;;;8.35;3.90;;;15.50;70.90;;;;;;5085221;28;20028;-79
2021/10/28 19:36:01;;;;;;;6.18;4.30;;;15.40;72.40;;;;;;5074441;28;20405;-79
2021/10/28 19:38:44;;;;;;;5.25;4.15;;;15.30;72.80;;;;;;5078461;28;20028;-78
2021/10/28 19:46:39;;;;;;;7.95;4.78;;;15.40;72.60;;;;;;5087088;28;20028;-76
2021/10/28 19:49:06;;;;;;;9.18;4.22;;;15.30;72.40;;;;;;5077361;28;20107;-76
2021/10/28 19:51:31;;;;;;;9.63;4.93;;;15.40;73.00;;;;;;5078801;28;20032;-76
2021/10/28 19:53:57;;;;;;;12.50;5.07;;;15.40;73.20;;;;;;5086689;28;20032;-76
2021/10/28 19:56:24;;;;;;;7.20;4.55;;;15.40;72.80;;;;;;5087096;28;20024;-76
2021/10/28 19:58:55;;;;;;;10.13;5.32;;;15.40;73.90;;;;;;5087693;28;20081;-76
2021/10/28 20:01:46;;;;;;;8.30;4.95;;;15.30;73.90;;;;;;5080839;28;20028;-76
2021/10/28 20:20:20;;;;;;;11.27;5.18;;;15.20;75.20;;;;;;5087287;28;20035;-78
2021/10/28 20:22:47;;;;;;;9.15;5.45;;;15.20;74.90;;;;;;5073346;28;20056;-76
2021/10/28 20:25:15;;;;;;;9.18;5.00;;;15.20;75.90;;;;;;5086877;28;20032;-75
2021/10/28 20:27:45;;;;;;;8.13;5.25;;;15.30;75.00;;;;;;5084653;28;20610;-75
2021/10/28 20:30:11;;;;;;;11.95;5.78;;;15.20;75.30;;;;;;5066079;28;20069;-75
2021/10/28 20:32:37;;;;;;;8.48;4.80;;;15.20;77.20;;;;;;5083857;28;20033;-77
2021/10/28 20:35:08;;;;;;;7.60;4.93;;;15.20;76.60;;;;;;5087047;28;20021;-76
2021/10/28 20:37:36;;;;;;;9.45;5.28;;;15.10;77.10;;;;;;5077029;28;20052;-76
2021/10/28 20:40:04;;;;;;;8.88;5.60;;;15.20;76.00;;;;;;5075340;28;20021;-77
2021/10/28 20:42:47;;;;;;;8.10;5.10;;;15.20;77.20;;;;;;5081789;28;20056;-74
2021/10/28 20:45:15;;;;;;;10.63;6.13;;;15.20;76.90;;;;;;5079140;28;20048;-74
2021/10/28 20:47:43;;;;;;;9.75;5.80;;;15.10;78.50;;;;;;5060326;28;20029;-76
2021/10/28 20:50:11;;;;;;;10.07;5.75;;;15.10;79.70;;;;;;5072481;28;20021;-76
2021/10/28 20:52:41;;;;;;;10.32;5.90;;;15.10;78.40;;;;;;5087227;28;20424;-77
2021/10/28 20:55:08;;;;;;;9.45;6.30;;;15.20;77.90;;;;;;5074110;28;20028;-77
2021/10/28 20:57:35;;;;;;;10.57;5.55;;;15.10;78.70;;;;;;5082328;28;20041;-77
2021/10/28 21:00:07;;;;;;;8.35;5.47;;;15.10;78.90;;;;;;5080875;28;20046;-77
2021/10/28 21:02:34;;;;;;;10.75;5.63;;;15.00;78.80;;;;;;5074530;28;20040;-76
2021/10/28 21:05:00;;;;;;;7.03;4.65;;;15.00;78.60;;;;;;5072786;28;20500;-76
2021/10/28 21:07:27;;;;;;;10.13;5.40;;;15.10;78.50;;;;;;5068151;28;20031;-74
2021/10/28 21:09:53;;;;;;;9.82;5.38;;;15.10;78.00;;;;;;5074156;28;20021;-77
2021/10/28 21:12:19;;;;;;;9.88;5.00;;;15.00;79.50;;;;;;5064697;28;20030;-74
2021/10/28 21:14:45;;;;;;;8.65;5.03;;;15.00;79.80;;;;;;5082618;28;20059;-74
2021/10/28 21:17:11;;;;;;;12.05;5.25;;;15.00;79.80;;;;;;5053856;28;20060;-74
2021/10/28 21:19:36;;;;;;;7.88;4.65;;;15.00;78.80;;;;;;5067469;28;20090;-74
2021/10/28 21:22:03;;;;;;;9.05;4.72;;;14.90;79.80;;;;;;5062861;28;20032;-74
2021/10/28 21:24:28;;;;;;;7.65;5.25;;;14.90;79.00;;;;;;5080963;28;20035;-74
2021/10/28 21:26:54;;;;;;;10.15;5.43;;;14.90;79.80;;;;;;5083468;28;20016;-75
2021/10/28 21:29:20;;;;;;;9.05;4.75;;;14.90;79.90;;;;;;5084721;28;20035;-74
2021/10/28 21:31:46;;;;;;;9.98;5.63;;;14.90;79.20;;;;;;5087832;28;20424;-74
2021/10/28 21:34:11;;;;;;;10.60;5.72;;;14.80;79.40;;;;;;5067162;28;20020;-74
2021/10/28 21:36:38;;;;;;;8.20;5.35;;;14.90;79.40;;;;;;5082517;28;20031;-73
2021/10/28 21:39:04;;;;;;;8.20;4.65;;;14.80;78.80;;;;;;5079759;28;20032;-73
2021/10/28 21:41:30;;;;;;;8.65;5.47;;;14.80;78.30;;;;;;5084539;28;20052;-73
2021/10/28 21:43:55;;;;;;;9.20;5.03;;;14.80;80.50;;;;;;5081389;28;20035;-76
2021/10/28 21:46:22;;;;;;;9.95;5.13;;;14.80;79.90;;;;;;5084662;28;20081;-77
2021/10/28 21:48:48;;;;;;;7.38;4.72;;;14.80;80.10;;;;;;5085538;28;20439;-77
2021/10/28 21:51:19;;;;;;;10.18;5.15;;;14.80;80.10;;;;;;5084469;28;20028;-76
2021/10/28 21:53:47;;;;;;;10.68;5.07;;;14.80;79.30;;;;;;5081993;28;20033;-77